createdAt,value
2019-05-03T00:02:12.285Z,25.60
2019-05-03T00:04:42.322Z,24.70
2019-05-03T00:07:11.798Z,25.93
2019-05-03T00:09:42.500Z,26.80
2019-05-03T00:12:12.502Z,26.00
2019-05-03T00:14:42.358Z,26.97
2019-05-03T00:17:11.730Z,25.23
2019-05-03T00:19:42.095Z,28.97
2019-05-03T00:22:12.232Z,27.40
2019-05-03T00:24:42.452Z,25.47
2019-05-03T00:27:12.548Z,29.13
2019-05-03T00:29:41.822Z,24.13
2019-05-03T00:32:12.302Z,25.83
2019-05-03T00:34:42.173Z,26.47
2019-05-03T00:37:22.090Z,27.67
2019-05-03T00:39:54.709Z,28.50
2019-05-03T00:42:23.112Z,30.90
2019-05-03T00:44:51.728Z,27.17
2019-05-03T00:47:22.032Z,28.27
2019-05-03T00:49:51.827Z,27.73
2019-05-03T00:52:22.233Z,26.63
2019-05-03T00:54:50.610Z,28.00
2019-05-03T00:57:19.034Z,31.37
2019-05-03T00:59:47.804Z,34.50
2019-05-03T01:02:16.217Z,29.43
2019-05-03T01:04:44.641Z,31.50
2019-05-03T01:07:13.130Z,34.30
2019-05-03T01:09:42.416Z,26.97
2019-05-03T01:12:12.583Z,31.90
2019-05-03T01:14:43.022Z,32.60
2019-05-03T01:17:11.829Z,31.23
2019-05-03T01:19:40.326Z,29.73
2019-05-03T01:22:08.735Z,28.53
2019-05-03T01:24:37.152Z,31.80
2019-05-03T01:27:05.629Z,30.03
2019-05-03T01:29:34.105Z,30.67
2019-05-03T01:32:02.678Z,30.63
2019-05-03T01:34:32.608Z,34.70
2019-05-03T01:37:02.663Z,27.60
2019-05-03T01:39:31.590Z,31.90
2019-05-03T01:42:00.186Z,30.37
2019-05-03T01:44:28.602Z,29.53
2019-05-03T01:46:58.645Z,29.07
2019-05-03T01:49:32.104Z,29.57
2019-05-03T01:52:12.815Z,30.57
2019-05-03T01:54:42.701Z,32.97
2019-05-03T01:57:11.674Z,31.70
2019-05-03T01:59:40.112Z,36.73
2019-05-03T02:02:19.228Z,33.83
2019-05-03T02:04:53.369Z,36.17
2019-05-03T02:07:22.406Z,33.20
2019-05-03T02:09:52.418Z,32.53
2019-05-03T02:12:22.197Z,29.53
2019-05-03T02:14:51.669Z,30.90
2019-05-03T02:17:20.209Z,34.83
2019-05-03T02:19:48.617Z,32.50
2019-05-03T02:22:17.038Z,30.37
2019-05-03T02:24:45.445Z,33.43
2019-05-03T02:27:13.853Z,31.20
2019-05-03T02:29:42.266Z,31.33
2019-05-03T02:32:12.943Z,33.90
2019-05-03T02:34:43.560Z,34.33
2019-05-03T02:37:13.637Z,34.43
2019-05-03T02:39:42.685Z,36.17
2019-05-03T02:42:11.954Z,32.00
2019-05-03T02:44:40.716Z,32.90
2019-05-03T02:47:15.906Z,35.00
2019-05-03T02:49:49.079Z,33.63
2019-05-03T02:52:37.123Z,30.90
2019-05-03T02:55:08.494Z,28.37
2019-05-03T02:57:37.277Z,25.67
2019-05-03T03:00:10.328Z,26.53
2019-05-03T03:02:40.264Z,27.83
2019-05-03T03:05:09.201Z,28.27
2019-05-03T03:07:38.650Z,23.43
2019-05-03T03:10:07.795Z,23.80
2019-05-03T03:12:39.122Z,24.57
2019-05-03T03:15:07.979Z,25.43
2019-05-03T03:17:36.628Z,25.27
2019-05-03T03:20:06.510Z,28.63
2019-05-03T03:22:38.058Z,25.07
2019-05-03T03:25:08.552Z,24.80
2019-05-03T03:27:39.929Z,24.93
2019-05-03T03:30:29.846Z,24.73
2019-05-03T03:32:59.604Z,24.03
2019-05-03T03:35:30.675Z,25.97
2019-05-03T03:37:59.331Z,25.37
2019-05-03T03:40:30.045Z,26.53
2019-05-03T03:43:00.094Z,26.27
2019-05-03T03:45:28.561Z,24.83
2019-05-03T03:47:59.378Z,27.57
2019-05-03T03:50:29.321Z,26.83
2019-05-03T03:53:00.807Z,24.63
2019-05-03T03:55:32.044Z,24.97
2019-05-03T03:58:00.536Z,25.40
2019-05-03T04:00:29.008Z,26.30
2019-05-03T04:02:57.498Z,25.30
2019-05-03T04:05:25.969Z,25.77
2019-05-03T04:07:56.147Z,23.67
2019-05-03T04:10:26.164Z,23.80
2019-05-03T04:12:55.948Z,27.00
2019-05-03T04:15:32.155Z,23.33
2019-05-03T04:18:05.837Z,22.63
2019-05-03T04:20:36.226Z,19.77
2019-05-03T04:23:05.365Z,21.60
2019-05-03T04:25:35.725Z,21.23
2019-05-03T04:28:05.750Z,23.40
2019-05-03T04:30:36.358Z,25.83
2019-05-03T04:33:06.005Z,22.43
2019-05-03T04:35:36.420Z,20.77
2019-05-03T04:38:05.622Z,23.27
2019-05-03T04:40:35.778Z,20.90
2019-05-03T04:43:05.996Z,20.73
2019-05-03T04:45:36.689Z,22.40
2019-05-03T04:48:06.068Z,22.27
2019-05-03T04:50:36.719Z,22.80
2019-05-03T04:53:05.740Z,21.13
2019-05-03T04:55:36.409Z,19.83
2019-05-03T04:58:04.837Z,21.10
2019-05-03T05:00:35.863Z,22.13
2019-05-03T05:03:05.654Z,23.27
2019-05-03T05:05:36.132Z,23.57
2019-05-03T05:08:05.913Z,21.90
2019-05-03T05:10:36.020Z,21.53
2019-05-03T05:13:05.412Z,22.53
2019-05-03T05:15:35.367Z,23.70
2019-05-03T05:18:06.210Z,22.20
2019-05-03T05:20:45.761Z,21.60
2019-05-03T05:23:14.768Z,22.20
2019-05-03T05:25:45.006Z,20.53
2019-05-03T05:28:17.973Z,15.43
2019-05-03T05:30:46.561Z,15.07
2019-05-03T05:33:20.713Z,16.77
2019-05-03T05:35:50.661Z,15.00
2019-05-03T05:38:19.461Z,11.73
2019-05-03T05:40:47.942Z,11.57
2019-05-03T05:43:16.357Z,11.10
2019-05-03T05:45:45.018Z,14.93
2019-05-03T05:48:18.242Z,13.27
2019-05-03T05:50:46.667Z,11.20
2019-05-03T05:53:15.285Z,11.80
2019-05-03T05:56:01.850Z,12.43
2019-05-03T05:58:34.931Z,12.00
2019-05-03T06:01:11.006Z,15.20
2019-05-03T06:03:39.409Z,13.33
2019-05-03T06:06:09.623Z,8.73
2019-05-03T06:08:45.612Z,9.43
2019-05-03T06:11:18.388Z,9.73
2019-05-03T06:13:48.429Z,8.53
2019-05-03T06:16:18.530Z,8.27
2019-05-03T06:18:54.532Z,8.67
2019-05-03T06:21:30.210Z,7.37
2019-05-03T06:24:09.285Z,8.67
2019-05-03T06:26:39.337Z,8.90
2019-05-03T06:29:08.080Z,7.53
2019-05-03T06:31:47.485Z,9.00
2019-05-03T06:34:15.884Z,9.80
2019-05-03T06:36:45.935Z,10.70
2019-05-03T06:39:15.434Z,9.30
2019-05-03T06:41:44.529Z,10.27
2019-05-03T06:44:14.448Z,9.67
2019-05-03T06:46:45.695Z,10.00
2019-05-03T06:49:15.384Z,8.47
2019-05-03T06:51:45.720Z,7.40
2019-05-03T06:54:15.742Z,8.87
2019-05-03T06:56:45.180Z,7.33
2019-05-03T06:59:21.445Z,7.70
2019-05-03T07:01:51.491Z,7.37
2019-05-03T07:04:21.546Z,7.10
2019-05-03T07:07:07.874Z,7.20
2019-05-03T07:09:37.922Z,6.90
2019-05-03T07:12:06.352Z,6.33
2019-05-03T07:14:35.052Z,6.67
2019-05-03T07:17:05.401Z,7.37
2019-05-03T07:19:35.401Z,7.23
2019-05-03T07:22:05.047Z,5.70
2019-05-03T07:24:38.785Z,6.03
2019-05-03T07:27:05.452Z,6.60
2019-05-03T07:29:36.488Z,7.07
2019-05-03T07:32:05.193Z,6.43
2019-05-03T07:34:35.095Z,6.30
2019-05-03T07:37:05.911Z,7.80
2019-05-03T07:39:34.907Z,7.13
2019-05-03T07:42:05.475Z,5.97
2019-05-03T07:44:34.759Z,6.07
2019-05-03T07:47:04.850Z,5.87
2019-05-03T07:49:35.390Z,6.40
2019-05-03T07:52:05.847Z,6.37
2019-05-03T07:54:34.883Z,6.50
2019-05-03T07:57:05.256Z,5.20
2019-05-03T07:59:35.547Z,5.40
2019-05-03T08:02:05.595Z,4.97
2019-05-03T08:04:35.815Z,5.57
2019-05-03T08:07:04.742Z,5.50
2019-05-03T08:09:35.027Z,7.27
2019-05-03T08:12:05.058Z,5.23
2019-05-03T08:14:35.514Z,5.23
2019-05-03T08:17:05.042Z,4.20
2019-05-03T08:19:35.894Z,3.92
2019-05-03T08:22:04.864Z,3.02
2019-05-03T08:24:34.653Z,4.90
2019-05-03T08:27:05.101Z,5.47
2019-05-03T08:29:35.161Z,4.77
2019-05-03T08:32:11.141Z,3.50
2019-05-03T08:34:47.205Z,4.50
2019-05-03T08:37:20.073Z,5.20
2019-05-03T08:39:48.566Z,5.20
2019-05-03T08:42:18.601Z,3.67
2019-05-03T08:44:47.009Z,4.13
2019-05-03T08:47:15.606Z,3.53
2019-05-03T08:49:45.039Z,3.53
2019-05-03T08:52:15.641Z,4.37
2019-05-03T08:54:44.897Z,2.80
2019-05-03T08:57:14.985Z,3.93
2019-05-03T08:59:44.604Z,2.90
2019-05-03T09:02:14.350Z,4.53
2019-05-03T09:04:45.953Z,4.63
2019-05-03T09:07:14.796Z,2.80
2019-05-03T09:10:00.450Z,4.13
2019-05-03T09:12:30.497Z,5.77
2019-05-03T09:14:58.910Z,4.37
2019-05-03T09:17:27.309Z,2.50
2019-05-03T09:19:55.714Z,3.13
2019-05-03T09:22:25.552Z,3.43
2019-05-03T09:24:54.706Z,3.33
2019-05-03T09:27:24.715Z,2.43
2019-05-03T09:29:55.665Z,2.50
2019-05-03T09:32:25.471Z,3.47
2019-05-03T09:34:55.069Z,4.73
2019-05-03T09:37:24.980Z,3.33
2019-05-03T09:39:55.184Z,1.97
2019-05-03T09:42:24.797Z,2.93
2019-05-03T09:44:55.436Z,4.40
2019-05-03T09:47:25.200Z,2.83
2019-05-03T09:49:55.687Z,2.33
2019-05-03T09:52:25.015Z,1.97
2019-05-03T09:54:55.319Z,3.40
2019-05-03T09:57:24.773Z,2.07
2019-05-03T09:59:59.123Z,2.50
2019-05-03T10:02:24.727Z,2.37
2019-05-03T10:04:55.243Z,1.73
2019-05-03T10:07:25.606Z,4.40
2019-05-03T10:09:55.282Z,1.43
2019-05-03T10:12:25.520Z,2.27
2019-05-03T10:14:54.877Z,2.70
2019-05-03T10:17:25.279Z,1.93
2019-05-03T10:19:54.752Z,2.53
2019-05-03T10:22:26.638Z,2.03
2019-05-03T10:24:55.675Z,1.70
2019-05-03T10:27:25.156Z,1.93
2019-05-03T10:29:54.624Z,1.60
2019-05-03T10:32:28.652Z,3.73
2019-05-03T10:34:58.700Z,2.00
2019-05-03T10:37:31.405Z,2.10
2019-05-03T10:40:05.009Z,2.67
2019-05-03T10:42:32.190Z,2.97
2019-05-03T10:45:00.664Z,2.53
2019-05-03T10:47:29.077Z,2.37
2019-05-03T10:49:57.485Z,3.27
2019-05-03T10:52:30.312Z,2.63
2019-05-03T10:54:58.721Z,3.57
2019-05-03T10:57:28.757Z,2.83
2019-05-03T10:59:57.502Z,2.20
2019-05-03T11:02:35.219Z,4.10
2019-05-03T11:05:06.302Z,2.20
2019-05-03T11:07:34.706Z,3.27
2019-05-03T11:10:05.300Z,3.10
2019-05-03T11:12:34.716Z,2.20
2019-05-03T11:15:04.645Z,2.63
2019-05-03T11:17:34.749Z,5.10
2019-05-03T11:20:05.192Z,3.33
2019-05-03T11:22:34.963Z,3.30
2019-05-03T11:25:05.157Z,3.27
2019-05-03T11:27:35.428Z,3.93
2019-05-03T11:30:09.606Z,3.40
2019-05-03T11:32:40.037Z,4.23
2019-05-03T11:35:18.824Z,2.50
2019-05-03T11:37:58.053Z,2.93
2019-05-03T11:40:26.458Z,3.47
2019-05-03T11:42:56.493Z,2.70
2019-05-03T11:45:25.244Z,3.10
2019-05-03T11:47:55.088Z,3.40
2019-05-03T11:50:25.333Z,4.53
2019-05-03T11:52:55.393Z,2.73
2019-05-03T11:55:26.589Z,3.80
2019-05-03T11:57:56.402Z,6.07
2019-05-03T12:00:26.819Z,4.37
2019-05-03T12:02:57.013Z,3.80
2019-05-03T12:05:27.070Z,5.47
2019-05-03T12:07:55.516Z,5.60
2019-05-03T12:10:37.179Z,6.07
2019-05-03T12:13:05.148Z,9.50
2019-05-03T12:15:35.255Z,4.33
2019-05-03T12:18:06.406Z,3.70
2019-05-03T12:20:37.060Z,5.07
2019-05-03T12:23:06.383Z,4.83
2019-05-03T12:25:36.349Z,3.43
2019-05-03T12:28:05.871Z,3.67
2019-05-03T12:30:35.457Z,4.37
2019-05-03T12:33:06.008Z,6.50
2019-05-03T12:35:35.711Z,3.10
2019-05-03T12:38:05.449Z,3.73
2019-05-03T12:40:34.951Z,4.20
2019-05-03T12:43:06.114Z,3.70
2019-05-03T12:45:35.442Z,4.63
2019-05-03T12:48:04.867Z,2.90
2019-05-03T12:50:34.663Z,3.47
2019-05-03T12:53:04.757Z,4.27
2019-05-03T12:55:35.570Z,3.10
2019-05-03T12:58:06.706Z,3.73
2019-05-03T13:00:40.834Z,3.33
2019-05-03T13:03:10.907Z,3.53
2019-05-03T13:05:39.643Z,3.50
2019-05-03T13:08:36.686Z,5.43
2019-05-03T13:11:05.951Z,4.67
2019-05-03T13:13:35.812Z,4.00
2019-05-03T13:16:05.417Z,3.57
2019-05-03T13:18:35.174Z,4.13
2019-05-03T13:21:05.881Z,3.93
2019-05-03T13:23:35.386Z,3.60
2019-05-03T13:26:05.611Z,3.63
2019-05-03T13:28:34.285Z,3.83
2019-05-03T13:31:02.703Z,3.97
2019-05-03T13:33:31.174Z,4.13
2019-05-03T13:35:59.581Z,2.97
2019-05-03T13:38:28.266Z,6.03
2019-05-03T13:40:56.746Z,6.60
2019-05-03T13:43:25.229Z,4.37
2019-05-03T13:45:55.513Z,5.47
2019-05-03T13:48:26.138Z,4.50
2019-05-03T13:50:55.158Z,6.30
2019-05-03T13:53:25.431Z,4.83
2019-05-03T13:55:55.201Z,4.23
2019-05-03T13:58:26.158Z,4.67
2019-05-03T14:00:54.972Z,4.90
2019-05-03T14:03:23.705Z,5.97
2019-05-03T14:05:52.315Z,5.83
2019-05-03T14:08:20.746Z,7.23
2019-05-03T14:10:49.338Z,6.33
2019-05-03T14:13:17.875Z,5.17
2019-05-03T14:15:46.292Z,5.10
2019-05-03T14:18:15.411Z,5.87
2019-05-03T14:20:45.675Z,8.67
2019-05-03T14:23:14.863Z,5.43
2019-05-03T14:25:44.695Z,4.83
2019-05-03T14:28:14.583Z,4.63
2019-05-03T14:30:45.358Z,5.37
2019-05-03T14:33:14.082Z,5.00
2019-05-03T14:35:42.499Z,4.23
2019-05-03T14:38:10.910Z,4.70
2019-05-03T14:40:39.714Z,4.67
2019-05-03T14:43:08.211Z,4.37
2019-05-03T14:45:36.627Z,7.30
2019-05-03T14:48:06.136Z,5.10
2019-05-03T14:50:35.224Z,4.93
2019-05-03T14:53:05.412Z,4.13
2019-05-03T14:55:35.757Z,4.17
2019-05-03T14:58:12.313Z,4.70
2019-05-03T15:00:45.315Z,6.73
2019-05-03T15:03:15.358Z,5.20
2019-05-03T15:05:43.802Z,6.37
2019-05-03T15:08:12.216Z,5.97
2019-05-03T15:10:40.628Z,5.07
2019-05-03T15:13:09.126Z,7.07
2019-05-03T15:15:37.534Z,5.97
2019-05-03T15:18:06.056Z,5.50
2019-05-03T15:20:34.885Z,7.03
2019-05-03T15:23:05.333Z,6.20
2019-05-03T15:25:34.594Z,5.57
2019-05-03T15:28:05.071Z,5.73
2019-05-03T15:30:35.155Z,5.63
2019-05-03T15:33:05.007Z,5.20
2019-05-03T15:35:35.192Z,5.43
2019-05-03T15:38:05.428Z,5.60
2019-05-03T15:40:34.257Z,5.93
2019-05-03T15:43:05.589Z,5.37
2019-05-03T15:45:38.492Z,4.90
2019-05-03T15:48:08.537Z,10.73
2019-05-03T15:50:36.950Z,5.13
2019-05-03T15:53:05.350Z,3.90
2019-05-03T15:55:33.749Z,4.97
2019-05-03T15:58:02.157Z,4.13
2019-05-03T16:00:30.565Z,3.60
2019-05-03T16:03:08.042Z,5.33
2019-05-03T16:05:29.110Z,4.87
2019-05-03T16:07:57.686Z,5.13
2019-05-03T16:10:26.093Z,4.90
2019-05-03T16:12:54.675Z,5.33
2019-05-03T16:15:24.649Z,4.27
2019-05-03T16:17:54.769Z,4.13
2019-05-03T16:20:24.979Z,5.53
2019-05-03T16:22:54.448Z,3.80
2019-05-03T16:25:25.099Z,5.20
2019-05-03T16:28:07.399Z,5.00
2019-05-03T16:30:40.066Z,5.20
2019-05-03T16:33:08.477Z,7.83
2019-05-03T16:35:37.822Z,4.40
2019-05-03T16:38:06.566Z,4.00
2019-05-03T16:40:35.010Z,6.60
2019-05-03T16:43:03.426Z,4.47
2019-05-03T16:45:31.830Z,4.07
2019-05-03T16:48:00.245Z,5.63
2019-05-03T16:50:28.640Z,6.93
2019-05-03T16:52:57.060Z,7.20
2019-05-03T16:55:25.728Z,5.63
2019-05-03T16:57:54.934Z,7.63
2019-05-03T17:00:25.009Z,7.17
2019-05-03T17:02:55.101Z,7.47
2019-05-03T17:05:28.018Z,5.37
2019-05-03T17:08:01.108Z,6.37
2019-05-03T17:10:34.825Z,4.93
2019-05-03T17:13:05.395Z,3.40
2019-05-03T17:15:35.319Z,4.10
2019-05-03T17:18:03.888Z,5.50
2019-05-03T17:20:32.317Z,4.33
2019-05-03T17:23:00.786Z,5.53
2019-05-03T17:25:29.215Z,4.33
2019-05-03T17:27:57.622Z,7.30
2019-05-03T17:30:33.791Z,7.87
2019-05-03T17:32:56.242Z,6.13
2019-05-03T17:35:25.154Z,9.50
2019-05-03T17:37:57.175Z,12.20
2019-05-03T17:40:44.218Z,9.20
2019-05-03T17:43:14.695Z,6.87
2019-05-03T17:45:45.453Z,5.43
2019-05-03T17:48:14.976Z,14.73
2019-05-03T17:50:45.345Z,5.90
2019-05-03T17:53:31.609Z,6.10
2019-05-03T17:56:10.857Z,9.33
2019-05-03T17:58:44.367Z,16.63
2019-05-03T18:01:15.133Z,12.63
2019-05-03T18:03:45.181Z,13.37
2019-05-03T18:06:18.178Z,11.97
2019-05-03T18:08:48.509Z,11.83
2019-05-03T18:11:18.568Z,10.77
2019-05-03T18:13:46.980Z,7.10
2019-05-03T18:16:15.388Z,8.67
2019-05-03T18:18:45.418Z,8.47
2019-05-03T18:21:15.146Z,5.67
2019-05-03T18:23:45.421Z,6.37
2019-05-03T18:26:14.442Z,7.57
2019-05-03T18:28:44.620Z,7.00
2019-05-03T18:31:14.623Z,7.77
2019-05-03T18:33:44.287Z,8.20
2019-05-03T18:36:14.666Z,9.73
2019-05-03T18:38:44.613Z,8.03
2019-05-03T18:41:13.709Z,5.60
2019-05-03T18:45:55.802Z,6.13
2019-05-03T18:48:26.535Z,5.63
2019-05-03T18:50:55.067Z,6.77
2019-05-03T18:53:25.066Z,6.70
2019-05-03T18:55:55.174Z,8.83
2019-05-03T18:58:24.399Z,6.17
2019-05-03T19:00:54.761Z,6.40
2019-05-03T19:03:25.016Z,5.80
2019-05-03T19:05:57.740Z,5.37
2019-05-03T19:08:44.635Z,6.23
2019-05-03T19:11:20.404Z,4.70
2019-05-03T19:14:06.397Z,5.13
2019-05-03T19:16:51.754Z,8.07
2019-05-03T19:19:21.798Z,5.93
2019-05-03T19:21:50.202Z,7.57
2019-05-03T19:24:18.674Z,7.00
2019-05-03T19:26:47.100Z,8.73
2019-05-03T19:29:15.513Z,14.10
2019-05-03T19:31:44.918Z,11.57
2019-05-03T19:34:15.321Z,10.97
2019-05-03T19:36:45.404Z,10.93
2019-05-03T19:39:14.417Z,14.63
2019-05-03T19:41:44.682Z,13.67
2019-05-03T19:44:14.997Z,11.17
2019-05-03T19:46:44.542Z,10.50
2019-05-03T19:49:13.059Z,8.87
2019-05-03T19:51:41.464Z,8.87
2019-05-03T19:54:09.929Z,9.27
2019-05-03T19:56:38.342Z,8.23
2019-05-03T19:59:08.392Z,11.30
2019-05-03T20:01:55.109Z,11.10
2019-05-03T20:04:28.029Z,9.80
2019-05-03T20:07:07.331Z,10.67
2019-05-03T20:09:35.738Z,8.17
2019-05-03T20:12:04.634Z,9.27
2019-05-03T20:14:33.220Z,7.20
2019-05-03T20:17:04.050Z,9.87
2019-05-03T20:19:31.757Z,8.80
2019-05-03T20:22:00.157Z,8.53
2019-05-03T20:24:30.800Z,11.93
2019-05-03T20:26:58.702Z,11.70
2019-05-03T20:29:27.109Z,16.03
2019-05-03T20:31:55.517Z,20.60
2019-05-03T20:34:24.926Z,24.33
2019-05-03T20:36:54.857Z,21.77
2019-05-03T20:39:25.267Z,20.83
2019-05-03T20:41:55.037Z,21.50
2019-05-03T20:44:25.269Z,21.07
2019-05-03T20:47:04.480Z,24.73
2019-05-03T20:49:34.698Z,27.00
2019-05-03T20:52:03.844Z,26.03
2019-05-03T20:54:32.455Z,22.33
2019-05-03T20:57:00.855Z,13.07
2019-05-03T20:59:41.943Z,10.33
2019-05-03T21:01:59.382Z,15.53
2019-05-03T21:04:27.789Z,26.57
2019-05-03T21:06:56.285Z,36.90
2019-05-03T21:09:24.857Z,38.00
2019-05-03T21:11:55.068Z,33.50
2019-05-03T21:14:24.491Z,29.87
2019-05-03T21:16:54.633Z,19.80
2019-05-03T21:19:39.746Z,18.97
2019-05-03T21:22:09.786Z,17.10
2019-05-03T21:24:42.989Z,15.77
2019-05-03T21:27:11.398Z,10.70
2019-05-03T21:29:54.857Z,7.10
2019-05-03T21:32:24.878Z,9.63
2019-05-03T21:34:53.005Z,7.77
2019-05-03T21:37:21.401Z,9.13
2019-05-03T21:39:49.813Z,6.97
2019-05-03T21:42:18.229Z,10.03
2019-05-03T21:44:46.632Z,7.23
2019-05-03T21:47:35.023Z,8.93
2019-05-03T21:50:04.849Z,12.37
2019-05-03T21:52:35.309Z,9.67
2019-05-03T21:55:05.459Z,7.53
2019-05-03T21:57:34.481Z,8.03
2019-05-03T22:00:05.523Z,8.80
2019-05-03T22:02:34.232Z,8.33
2019-05-03T22:05:02.734Z,13.07
2019-05-03T22:07:31.127Z,9.77
2019-05-03T22:09:59.530Z,10.20
2019-05-03T22:12:27.933Z,9.83
2019-05-03T22:14:57.975Z,8.03
2019-05-03T22:17:28.022Z,8.50
2019-05-03T22:19:58.065Z,7.77
2019-05-03T22:22:36.365Z,9.93
2019-05-03T22:27:45.459Z,9.87
2019-05-03T22:30:14.084Z,9.00
2019-05-03T22:32:44.418Z,9.03
2019-05-03T22:35:12.625Z,8.10
2019-05-03T22:37:41.034Z,9.43
2019-05-03T22:40:09.769Z,7.67
2019-05-03T22:42:38.181Z,10.50
2019-05-03T22:45:07.031Z,9.47
2019-05-03T22:47:35.828Z,12.37
2019-05-03T22:50:05.539Z,10.87
2019-05-03T22:52:34.974Z,8.50
2019-05-03T22:55:06.236Z,10.47
2019-05-03T22:57:35.110Z,8.90
2019-05-03T23:00:06.342Z,8.40
2019-05-03T23:02:35.235Z,7.80
2019-05-03T23:05:04.715Z,7.73
2019-05-03T23:07:36.904Z,9.43
2019-05-03T23:10:05.438Z,7.93
2019-05-03T23:12:34.874Z,6.80
2019-05-03T23:15:07.610Z,8.47
2019-05-03T23:17:36.019Z,10.10
2019-05-03T23:20:14.935Z,8.47
2019-05-03T23:22:43.269Z,8.97
2019-05-03T23:25:14.414Z,7.47
2019-05-03T23:27:44.498Z,7.90
2019-05-03T23:30:15.283Z,10.60
2019-05-03T23:32:45.226Z,7.93
2019-05-03T23:35:13.505Z,9.53
2019-05-03T23:37:41.919Z,8.60
2019-05-03T23:40:10.314Z,8.80
2019-05-03T23:42:38.729Z,8.97
2019-05-03T23:45:07.368Z,10.40
2019-05-03T23:47:40.101Z,8.40
2019-05-03T23:50:10.486Z,8.27
2019-05-03T23:52:39.061Z,8.97
2019-05-03T23:55:12.333Z,13.07
2019-05-03T23:57:40.734Z,10.80
